Nearby METAR Reports

 

EGDY - Yeovilton (navy), United Kingdom
Distance from station: NNW 26mi, 42km
Updated: 29/09/2020 04:50
Mostly cloudy
Mostly cloudy
 Wind from WNW
Wind: WNW 7 mph , 11 km/h
Temperature: 14°C
Dew Point: 14°C
Humidity: 100%
Barometer: 1014 hPa
Clouds: Mostly cloudy
Visibility: 6 miles , 10 km
Cloud details: Partly cloudy 427 m
Mostly cloudy 640 m
2020/09/29 02:50 EGDY 290250Z AUTO 29006KT 9999 SCT014/// BKN021/// 14/14 Q1014
EGHH - Bournemouth Airp, United Kingdom
Distance from station: ENE 28mi, 45km
Updated: 28/09/2020 23:20
NOT Current
Light drizzle, Mostly cloudy
Light drizzle, Mostly cloudy
 Wind from WSW
Wind: WSW 5 mph , 7 km/h
Temperature: 16°C
Dew Point: 15°C
Humidity: 94%
Barometer: 1014 hPa
Summary: Light Drizzle
Clouds: Mostly cloudy
Visibility: 6 miles , 10 km
Cloud details: Partly cloudy 213 m
Mostly cloudy 1463 m
2020/09/28 21:20 EGHH 282120Z 24004KT 9999 -DZ SCT007 BKN048 16/15 Q1014
 
EGTE - Exeter Airport, United Kingdom
Distance from station: W 43mi, 70km
Updated: 29/09/2020 03:20
NOT Current
Mostly cloudy
Mostly cloudy
 Wind from WNW
Wind: WNW 2 mph , 4 km/h
Temperature: 14°C
Dew Point: 13°C
Humidity: 94%
Barometer: 1015 hPa
Clouds: Mostly cloudy
Visibility: 6 miles , 10 km
Cloud details: Mostly cloudy 1036 m
2020/09/29 01:20 EGTE 290120Z 30002KT 9999 BKN034 14/13 Q1015
EGDM - Boscombe Down, United Kingdom
Distance from station: NE 47mi, 76km
Updated: 29/09/2020 04:50
Overcast
Overcast
 Wind from NW
Wind: NW 9 mph , 15 km/h
Temperature: 14°C
Dew Point: 14°C
Humidity: 100%
Barometer: 1014 hPa
Clouds: Overcast
Visibility: 6 miles , 10 km
Cloud details: Overcast 91 m
2020/09/29 02:50 EGDM 290250Z AUTO 32008KT 9999 OVC003/// 14/14 Q1014 RERA
 
EGVP - Middle Wallop, United Kingdom
Distance from station: NE 51mi, 82km
Updated: 29/09/2020 04:50
Overcast
Overcast
 Wind from W
Wind: W 7 mph , 11 km/h
Temperature: 15°C
Dew Point: 15°C
Humidity: 100%
Barometer: 1014 hPa
Clouds: Overcast
Visibility: 6 miles , 10 km
Cloud details: Overcast 122 m
2020/09/29 02:50 EGVP 290250Z AUTO 27006KT 9999 OVC004/// 15/15 Q1014
EGGD - Bristol/Lulsgate, United Kingdom
Distance from station: NNW 52mi, 83km
Updated: 29/09/2020 05:20
Partly cloudy
Partly cloudy
 Wind from varies
Wind: varies 3 mph , 6 km/h
Temperature: 12°C
Dew Point: 12°C
Humidity: 100%
Barometer: 1015 hPa
Clouds: Partly cloudy
Visibility: 6 miles , 10 km
Cloud details: Few Clouds 1280 m
Partly cloudy 1494 m
2020/09/29 03:20 EGGD 290320Z AUTO VRB03KT 9999 FEW042 SCT049 12/12 Q1015
 
EGHI - Southampton Wx C, United Kingdom
Distance from station: ENE 52mi, 84km
Updated: 28/09/2020 20:20
NOT Current
Mostly cloudy
Mostly cloudy
 Wind from varies
Wind: varies 3 mph , 6 km/h
Temperature: 17°C
Dew Point: 14°C
Humidity: 83%
Barometer: 1014 hPa
Clouds: Mostly cloudy
Visibility: 6 miles , 10 km
Cloud details: Mostly cloudy 518 m
2020/09/28 18:20 EGHI 281820Z VRB03KT 9999 BKN017 17/14 Q1014
EGJA - Alderney/Channel, United Kingdom
Distance from station: S 65mi, 104km
Updated: 28/09/2020 19:50
NOT Current
Mostly cloudy
Mostly cloudy
 Wind from W
Wind: W 14 mph , 22 km/h
Temperature: 16°C
Dew Point: 15°C
Humidity: 94%
Barometer: 1016 hPa
Clouds: Mostly cloudy
Visibility: 6 miles , 10 km
Cloud details: Few Clouds 122 m
Mostly cloudy 152 m
2020/09/28 17:50 EGJA 281750Z 26012KT 9999 FEW004 BKN005 16/15 Q1016
 
EGFF - Cardiff-Wales Ar, United Kingdom
Distance from station: NW 65mi, 105km
Updated: 29/09/2020 05:20
Clear
Clear
 Wind from NW
Wind: NW 5 mph , 7 km/h
Temperature: 12°C
Dew Point: 12°C
Humidity: 100%
Barometer: 1015 hPa
Clouds: Clear
Visibility: 6 miles , 10 km
2020/09/29 03:20 EGFF 290320Z AUTO 32004KT 9999 NCD 12/12 Q1015
EGVA - Fairford Raf, United Kingdom
Distance from station: NNE 77mi, 123km
Updated: 29/09/2020 05:45
Light drizzle, Overcast
Light drizzle, Overcast
 Wind from NNW
Wind: NNW 5 mph , 7 km/h
Temperature: 13°C
Dew Point: 13°C
Humidity: 100%
Barometer: 1014.2 hPa
Summary: Light Drizzle
Clouds: Overcast
Visibility: 6 miles , 10 km
Cloud details: Overcast 1250 m
2020/09/29 03:45 EGVA 290345Z AUTO 33004KT 9999 -DZ OVC041 13/13 A2995 RMK AO2 DZE32DZB45 SLP144 $